createdAt,value
2022-12-02T00:02:27.944Z,40.30
2022-12-02T00:07:35.694Z,37.30
2022-12-02T00:12:42.986Z,44.80
2022-12-02T00:17:51.257Z,46.20
2022-12-02T00:22:58.624Z,39.40
2022-12-02T00:28:06.699Z,41.90
2022-12-02T00:33:16.065Z,77.60
2022-12-02T00:38:24.067Z,46.10
2022-12-02T00:43:48.797Z,62.40
2022-12-02T00:48:56.387Z,74.80
2022-12-02T00:54:03.915Z,82.70
2022-12-02T00:59:12.139Z,87.90
2022-12-02T01:04:19.409Z,52.10
2022-12-02T01:09:27.059Z,47.90
2022-12-02T01:14:34.796Z,41.50
2022-12-02T01:19:42.099Z,36.60
2022-12-02T01:24:49.779Z,36.30
2022-12-02T01:29:57.468Z,34.80
2022-12-02T01:35:04.846Z,27.00
2022-12-02T01:40:15.867Z,29.20
2022-12-02T01:45:24.407Z,27.60
2022-12-02T01:50:33.159Z,32.30
2022-12-02T01:55:40.927Z,29.50
2022-12-02T02:00:48.410Z,30.80
2022-12-02T02:05:56.461Z,34.90
2022-12-02T02:11:03.919Z,35.20
2022-12-02T02:16:11.913Z,42.60
2022-12-02T02:21:25.616Z,45.20
2022-12-02T02:26:33.467Z,33.50
2022-12-02T02:31:41.315Z,38.10
2022-12-02T02:36:50.072Z,37.70
2022-12-02T02:42:00.547Z,25.80
2022-12-02T02:47:08.477Z,21.60
2022-12-02T02:52:16.068Z,22.80
2022-12-02T02:57:23.727Z,26.20
2022-12-02T03:02:33.361Z,29.90
2022-12-02T03:07:40.947Z,28.80
2022-12-02T03:12:54.021Z,26.40
2022-12-02T03:18:01.779Z,27.60
2022-12-02T03:23:09.393Z,24.90
2022-12-02T03:28:16.827Z,22.90
2022-12-02T03:33:24.566Z,24.50
2022-12-02T03:38:33.923Z,26.50
2022-12-02T03:43:41.829Z,24.90
2022-12-02T03:48:50.020Z,25.70
2022-12-02T03:53:58.293Z,27.60
2022-12-02T03:59:05.735Z,26.50
2022-12-02T04:04:13.112Z,22.80
2022-12-02T04:09:20.497Z,22.70
2022-12-02T04:14:27.854Z,23.40
2022-12-02T04:19:35.328Z,19.80
2022-12-02T04:24:42.488Z,21.40
2022-12-02T04:29:50.326Z,21.00
2022-12-02T04:34:57.653Z,24.90
2022-12-02T04:40:07.101Z,24.20
2022-12-02T04:45:15.569Z,22.00
2022-12-02T04:50:23.227Z,22.80
2022-12-02T04:55:30.993Z,22.00
2022-12-02T05:00:38.497Z,24.70
2022-12-02T05:05:46.127Z,27.50
2022-12-02T05:10:53.450Z,27.70
2022-12-02T05:16:00.872Z,23.50
2022-12-02T05:21:09.166Z,23.70
2022-12-02T05:26:16.535Z,24.00
2022-12-02T05:31:24.041Z,26.80
2022-12-02T05:36:31.735Z,22.90
2022-12-02T05:41:39.086Z,24.30
2022-12-02T05:46:47.110Z,24.90
2022-12-02T05:51:59.332Z,19.50
2022-12-02T05:57:13.536Z,25.60
2022-12-02T06:02:34.674Z,21.10
2022-12-02T06:07:46.535Z,23.50
2022-12-02T06:12:56.012Z,25.00
2022-12-02T06:18:03.486Z,23.50
2022-12-02T06:23:16.257Z,23.00
2022-12-02T06:28:31.089Z,24.80
2022-12-02T06:33:40.773Z,24.30
2022-12-02T06:38:52.752Z,25.70
2022-12-02T06:44:19.718Z,24.80
2022-12-02T06:49:32.655Z,26.10
2022-12-02T06:54:40.616Z,24.30
2022-12-02T06:59:50.426Z,28.50
2022-12-02T07:04:58.839Z,25.90
2022-12-02T07:10:09.293Z,25.30
2022-12-02T07:15:28.467Z,26.80
2022-12-02T07:20:39.149Z,21.00
2022-12-02T07:25:49.133Z,19.10
2022-12-02T07:31:00.557Z,19.30
2022-12-02T07:36:09.097Z,23.50
2022-12-02T07:41:16.690Z,25.00
2022-12-02T07:46:24.361Z,23.60
2022-12-02T07:51:32.269Z,27.80
2022-12-02T07:56:39.609Z,28.40
2022-12-02T08:01:47.241Z,26.10
2022-12-02T08:06:54.882Z,23.00
2022-12-02T08:12:02.384Z,26.70
2022-12-02T08:17:10.089Z,34.40
2022-12-02T08:22:17.654Z,28.50
2022-12-02T08:27:25.613Z,22.90
2022-12-02T08:32:33.217Z,33.60
2022-12-02T08:37:40.853Z,40.80
2022-12-02T08:42:48.138Z,28.30
2022-12-02T08:47:55.994Z,28.90
2022-12-02T08:53:04.316Z,36.40
2022-12-02T08:58:11.854Z,26.50
2022-12-02T09:03:19.414Z,26.70
2022-12-02T09:08:27.275Z,32.00
2022-12-02T09:13:34.621Z,30.80
2022-12-02T09:18:41.923Z,29.00
2022-12-02T09:23:50.795Z,25.00
2022-12-02T09:28:58.526Z,35.40
2022-12-02T09:34:06.109Z,38.10
2022-12-02T09:39:13.627Z,27.60
2022-12-02T09:44:21.262Z,21.70
2022-12-02T09:49:28.502Z,24.30
2022-12-02T09:54:36.967Z,18.50
2022-12-02T09:59:44.721Z,22.40
2022-12-02T10:04:52.462Z,20.10
2022-12-02T10:10:00.771Z,21.70
2022-12-02T10:15:14.140Z,21.80
2022-12-02T10:20:24.641Z,20.10
2022-12-02T10:25:34.951Z,24.80
2022-12-02T10:30:53.863Z,21.60
2022-12-02T10:36:02.961Z,22.70
2022-12-02T10:41:21.481Z,22.40
2022-12-02T10:46:29.184Z,21.20
2022-12-02T10:51:36.699Z,23.70
2022-12-02T10:56:44.601Z,27.30
2022-12-02T11:01:52.213Z,20.80
2022-12-02T11:06:59.874Z,19.80
2022-12-02T11:12:37.818Z,18.20
2022-12-02T11:17:55.183Z,22.20
2022-12-02T11:23:22.161Z,20.90
